sensor_id;sensor_type;location;lat;lon;timestamp;temperature;humidity
2701;DHT22;1360;48.796;9.204;2022-08-18T00:03:04;20.00;99.90
2701;DHT22;1360;48.796;9.204;2022-08-18T00:05:31;20.00;99.90
2701;DHT22;1360;48.796;9.204;2022-08-18T00:07:58;19.90;99.90
2701;DHT22;1360;48.796;9.204;2022-08-18T00:10:25;19.90;99.90
2701;DHT22;1360;48.796;9.204;2022-08-18T00:12:51;19.90;99.90
2701;DHT22;1360;48.796;9.204;2022-08-18T00:15:18;20.00;99.90
2701;DHT22;1360;48.796;9.204;2022-08-18T00:17:45;20.00;99.90
2701;DHT22;1360;48.796;9.204;2022-08-18T00:20:14;20.00;99.90
2701;DHT22;1360;48.796;9.204;2022-08-18T01:42:08;19.50;99.90
2701;DHT22;1360;48.796;9.204;2022-08-18T01:44:34;19.40;99.90
2701;DHT22;1360;48.796;9.204;2022-08-18T01:47:01;19.30;99.90
2701;DHT22;1360;48.796;9.204;2022-08-18T01:49:28;19.30;99.90
2701;DHT22;1360;48.796;9.204;2022-08-18T01:51:55;19.30;99.90
2701;DHT22;1360;48.796;9.204;2022-08-18T01:54:21;19.30;99.90
2701;DHT22;1360;48.796;9.204;2022-08-18T01:56:48;19.20;99.90
2701;DHT22;1360;48.796;9.204;2022-08-18T01:59:18;19.10;99.90
2701;DHT22;1360;48.796;9.204;2022-08-18T02:01:45;19.10;99.90
2701;DHT22;1360;48.796;9.204;2022-08-18T02:04:12;19.20;99.90
2701;DHT22;1360;48.796;9.204;2022-08-18T02:06:40;19.20;99.90
2701;DHT22;1360;48.796;9.204;2022-08-18T02:09:07;19.20;99.90
2701;DHT22;1360;48.796;9.204;2022-08-18T02:11:34;19.20;99.90
2701;DHT22;1360;48.796;9.204;2022-08-18T03:00:42;19.10;99.90
2701;DHT22;1360;48.796;9.204;2022-08-18T03:03:09;19.10;99.90
2701;DHT22;1360;48.796;9.204;2022-08-18T03:05:37;19.20;99.90
2701;DHT22;1360;48.796;9.204;2022-08-18T03:08:04;19.20;99.90
2701;DHT22;1360;48.796;9.204;2022-08-18T03:10:30;19.40;99.90
2701;DHT22;1360;48.796;9.204;2022-08-18T03:12:57;19.40;99.90
2701;DHT22;1360;48.796;9.204;2022-08-18T03:15:24;19.40;99.90
2701;DHT22;1360;48.796;9.204;2022-08-18T03:17:52;19.40;99.90
2701;DHT22;1360;48.796;9.204;2022-08-18T03:20:18;19.30;99.90
2701;DHT22;1360;48.796;9.204;2022-08-18T03:22:45;19.30;99.90
2701;DHT22;1360;48.796;9.204;2022-08-18T03:25:12;19.30;99.90
2701;DHT22;1360;48.796;9.204;2022-08-18T03:27:38;19.30;99.90
2701;DHT22;1360;48.796;9.204;2022-08-18T03:32:32;19.30;99.90
2701;DHT22;1360;48.796;9.204;2022-08-18T03:35:00;19.30;99.90
2701;DHT22;1360;48.796;9.204;2022-08-18T03:37:27;19.30;99.90
2701;DHT22;1360;48.796;9.204;2022-08-18T03:39:53;19.30;99.90
2701;DHT22;1360;48.796;9.204;2022-08-18T03:42:20;19.30;99.90
2701;DHT22;1360;48.796;9.204;2022-08-18T03:44:47;19.40;99.90
2701;DHT22;1360;48.796;9.204;2022-08-18T03:47:13;19.40;99.90
2701;DHT22;1360;48.796;9.204;2022-08-18T04:02:00;19.30;99.90
2701;DHT22;1360;48.796;9.204;2022-08-18T04:04:27;19.20;99.90
2701;DHT22;1360;48.796;9.204;2022-08-18T04:06:56;19.10;99.90
2701;DHT22;1360;48.796;9.204;2022-08-18T04:41:19;19.30;99.90
2701;DHT22;1360;48.796;9.204;2022-08-18T04:43:51;19.20;99.90
2701;DHT22;1360;48.796;9.204;2022-08-18T04:46:18;19.20;99.90
2701;DHT22;1360;48.796;9.204;2022-08-18T04:53:39;19.40;99.90
2701;DHT22;1360;48.796;9.204;2022-08-18T04:56:13;19.40;99.90
2701;DHT22;1360;48.796;9.204;2022-08-18T04:58:43;19.40;99.90
2701;DHT22;1360;48.796;9.204;2022-08-18T05:01:15;19.40;99.90
2701;DHT22;1360;48.796;9.204;2022-08-18T05:03:42;19.40;99.90
2701;DHT22;1360;48.796;9.204;2022-08-18T05:06:09;19.50;99.90
2701;DHT22;1360;48.796;9.204;2022-08-18T05:08:36;19.50;99.90
2701;DHT22;1360;48.796;9.204;2022-08-18T05:11:03;19.60;99.90
2701;DHT22;1360;48.796;9.204;2022-08-18T05:13:29;19.70;99.90
2701;DHT22;1360;48.796;9.204;2022-08-18T05:15:58;19.80;99.90
2701;DHT22;1360;48.796;9.204;2022-08-18T05:18:28;19.90;99.90
2701;DHT22;1360;48.796;9.204;2022-08-18T05:20:55;19.90;99.90
2701;DHT22;1360;48.796;9.204;2022-08-18T05:23:22;20.10;99.90
2701;DHT22;1360;48.796;9.204;2022-08-18T05:25:49;20.20;99.90
2701;DHT22;1360;48.796;9.204;2022-08-18T05:28:21;20.30;99.90
2701;DHT22;1360;48.796;9.204;2022-08-18T05:30:48;20.40;99.90
2701;DHT22;1360;48.796;9.204;2022-08-18T05:33:16;20.60;99.90
2701;DHT22;1360;48.796;9.204;2022-08-18T05:35:43;20.70;99.90
2701;DHT22;1360;48.796;9.204;2022-08-18T05:43:06;20.70;99.90
2701;DHT22;1360;48.796;9.204;2022-08-18T05:48:01;20.80;99.90
2701;DHT22;1360;48.796;9.204;2022-08-18T06:00:34;20.80;99.90
2701;DHT22;1360;48.796;9.204;2022-08-18T06:05:29;20.80;99.90
2701;DHT22;1360;48.796;9.204;2022-08-18T09:16:53;23.80;99.90
2701;DHT22;1360;48.796;9.204;2022-08-18T09:19:28;23.90;99.90
2701;DHT22;1360;48.796;9.204;2022-08-18T09:21:57;23.80;99.90
2701;DHT22;1360;48.796;9.204;2022-08-18T10:50:41;24.80;99.90
2701;DHT22;1360;48.796;9.204;2022-08-18T14:27:31;28.50;98.90
2701;DHT22;1360;48.796;9.204;2022-08-18T14:29:59;28.50;99.90
2701;DHT22;1360;48.796;9.204;2022-08-18T14:49:41;29.40;97.80
2701;DHT22;1360;48.796;9.204;2022-08-18T14:54:37;29.00;97.70
2701;DHT22;1360;48.796;9.204;2022-08-18T15:04:29;28.90;97.30
2701;DHT22;1360;48.796;9.204;2022-08-18T15:21:43;29.40;96.40
2701;DHT22;1360;48.796;9.204;2022-08-18T15:24:27;29.40;96.70
2701;DHT22;1360;48.796;9.204;2022-08-18T15:34:34;28.00;97.90
2701;DHT22;1360;48.796;9.204;2022-08-18T15:37:02;27.80;99.20
2701;DHT22;1360;48.796;9.204;2022-08-18T15:49:20;27.60;98.90
2701;DHT22;1360;48.796;9.204;2022-08-18T15:51:48;27.60;98.80
2701;DHT22;1360;48.796;9.204;2022-08-18T15:56:44;27.60;98.60
2701;DHT22;1360;48.796;9.204;2022-08-18T16:01:37;27.50;99.00
2701;DHT22;1360;48.796;9.204;2022-08-18T16:06:31;27.60;98.70
2701;DHT22;1360;48.796;9.204;2022-08-18T16:08:59;27.70;98.90
2701;DHT22;1360;48.796;9.204;2022-08-18T16:18:51;27.50;99.40
2701;DHT22;1360;48.796;9.204;2022-08-18T18:25:12;24.30;99.90
2701;DHT22;1360;48.796;9.204;2022-08-18T18:42:37;24.10;99.90
2701;DHT22;1360;48.796;9.204;2022-08-18T18:59:59;23.90;99.90
2701;DHT22;1360;48.796;9.204;2022-08-18T19:27:04;23.60;99.90
2701;DHT22;1360;48.796;9.204;2022-08-18T19:29:35;23.70;99.90
2701;DHT22;1360;48.796;9.204;2022-08-18T19:34:32;23.20;99.90
2701;DHT22;1360;48.796;9.204;2022-08-18T19:36:59;23.50;99.90
2701;DHT22;1360;48.796;9.204;2022-08-18T19:39:30;23.50;99.90
2701;DHT22;1360;48.796;9.204;2022-08-18T19:41:58;23.50;99.90
2701;DHT22;1360;48.796;9.204;2022-08-18T19:44:29;23.50;99.90
2701;DHT22;1360;48.796;9.204;2022-08-18T19:46:57;23.50;99.90
2701;DHT22;1360;48.796;9.204;2022-08-18T19:59:17;23.40;99.90
2701;DHT22;1360;48.796;9.204;2022-08-18T20:01:55;23.40;99.90
2701;DHT22;1360;48.796;9.204;2022-08-18T20:06:55;23.40;99.90
2701;DHT22;1360;48.796;9.204;2022-08-18T20:19:45;23.30;99.90
2701;DHT22;1360;48.796;9.204;2022-08-18T20:22:26;23.30;99.90
2701;DHT22;1360;48.796;9.204;2022-08-18T20:24:53;23.30;99.90
2701;DHT22;1360;48.796;9.204;2022-08-18T20:27:25;23.20;99.90
2701;DHT22;1360;48.796;9.204;2022-08-18T20:30:00;23.20;99.90
2701;DHT22;1360;48.796;9.204;2022-08-18T20:32:28;23.20;99.90
2701;DHT22;1360;48.796;9.204;2022-08-18T20:47:24;23.00;99.90
2701;DHT22;1360;48.796;9.204;2022-08-18T20:49:57;23.00;99.90
2701;DHT22;1360;48.796;9.204;2022-08-18T20:52:30;23.00;99.90
2701;DHT22;1360;48.796;9.204;2022-08-18T21:00:04;23.00;99.90
2701;DHT22;1360;48.796;9.204;2022-08-18T21:02:37;22.90;99.90
2701;DHT22;1360;48.796;9.204;2022-08-18T21:05:05;22.90;99.90
2701;DHT22;1360;48.796;9.204;2022-08-18T21:14:56;22.80;99.90
2701;DHT22;1360;48.796;9.204;2022-08-18T21:17:24;22.80;99.90
2701;DHT22;1360;48.796;9.204;2022-08-18T21:19:58;22.70;99.90
2701;DHT22;1360;48.796;9.204;2022-08-18T21:22:25;22.70;99.90
